METAR Analyzer

一覧表示

Hello, Guest. (Login)

CYYZ/YYZ  -  トロント・ピアソン

No data in
2022-09-30 03:34 ~ 2022-09-30 05:34 (UTC)

CYOW/YOW  -  オタワ・マクドナルド・カルティエ

観測日時
2022-09-30 05:00 (UTC) (34分前)
気温
4
露点
3
湿数
1
相対湿度
93.2%
QNH
1029.5hPa
推定現地気圧
1015.6hPa
推定海面気圧
1030.1hPa
体感温度
-1.3
(無風時)
7.4
HI
2.9
気温前日比
-5
体感温度前日比
-0.7
HI前日比
-5
水平視程
>15SM
鉛直視程
データなし
雲底高度
No dense clouds
V/I
VMC (VFR)
RVR
No RVR data
卓越風
2kt from 210°
ガスト
No gust
降水
報告なし
その他の天気
報告なし
少しの(1/8) 片層雲 @ 400ft AGL

CYOW 300500Z 21002KT 15SM FEW004 04/03 A3040 RMK SF1 SF TR SLP302

CYUL/YUL  -  モントリオール・ピエール・エリオット・トルドー

観測日時
2022-09-30 05:00 (UTC) (34分前)
気温
7
露点
4
湿数
3
相対湿度
81.2%
QNH
1029.1hPa
推定現地気圧
1024.7hPa
推定海面気圧
1029.2hPa
体感温度
2.5
(無風時)
10.2
HI
5.9
気温前日比
-4
体感温度前日比
+2.3
HI前日比
-4.1
水平視程
>15SM
鉛直視程
データなし
雲底高度
データなし
V/I
判定不可
RVR
No RVR data
卓越風
2kt from VRB
ガスト
No gust
降水
報告なし
その他の天気
快晴
報告なし

CYUL 300500Z VRB02KT 15SM SKC 07/04 A3039 RMK SLP296

CYVR/YVR  -  バンクーバー

観測日時
2022-09-30 05:00 (UTC) (34分前)
気温
13
露点
12
湿数
1
相対湿度
93.6%
QNH
1022.4hPa
推定現地気圧
1021.9hPa
推定海面気圧
1022.4hPa
体感温度
15.3
(無風時)
15.3
HI
12.8
気温前日比
-1
体感温度前日比
+9.3
HI前日比
-1.1
水平視程
>15SM
鉛直視程
データなし
雲底高度
No dense clouds
V/I
VMC (VFR)
RVR
No RVR data
卓越風
静穏
ガスト
No gust
降水
報告なし
その他の天気
報告なし
少しの(1/8) 高積雲 @ 12000ft AGL / 少しの(1/8) 高積雲 @ 14000ft AGL / 少しの(2/8) 巻雲 @ 22000ft AGL

CYVR 300500Z 00000KT 15SM FEW120 FEW140 FEW220 13/12 A3019 RMK AC1AC1CI2 AC TR AC TR SLP226

162.6msec